Time;durP1;ratioP1;P1;durP2;ratioP2;P2;SDS_P1;SDS_P2;PMS_P1;PMS_P2;Temp;Humidity;BMP_temperature;BMP_pressure;BME280_temperature;BME280_humidity;BME280_pressure;Samples;Min_cycle;Max_cycle;Signal;HPM_P1;HPM_P2
2024/04/12 00:00:47;;;;;;;1999.90;999.90;;;;;;;;;;5483158;26;20012;-81
2024/04/12 00:03:17;;;;;;;1999.90;999.90;;;;;;;;;;5480582;26;20009;-81
2024/04/12 00:05:47;;;;;;;1999.90;999.90;;;;;;;;;;5481566;26;20010;-81
2024/04/12 00:08:16;;;;;;;1999.90;999.90;;;;;;;;;;5482447;26;20460;-80
2024/04/12 00:10:41;;;;;;;1999.90;999.90;;;;;;;;;;5482096;26;19998;-81
2024/04/12 00:13:31;;;;;;;1999.90;999.90;;;;;;;;;;5483222;26;20012;-81
2024/04/12 00:15:57;;;;;;;1999.90;999.90;;;;;;;;;;5481702;26;19998;-80
2024/04/12 00:18:26;;;;;;;1999.90;999.90;;;;;;;;;;5482709;26;20510;-81
2024/04/12 00:20:53;;;;;;;1999.90;999.90;;;;;;;;;;5482320;26;20017;-81
2024/04/12 00:23:25;;;;;;;1999.90;999.90;;;;;;;;;;5482998;26;20010;-81
2024/04/12 00:25:51;;;;;;;1999.90;999.90;;;;;;;;;;5482954;26;20009;-80
2024/04/12 00:28:19;;;;;;;1999.90;999.90;;;;;;;;;;5482965;26;19998;-81
2024/04/12 00:30:48;;;;;;;1999.90;999.90;;;;;;;;;;5466956;26;20019;-80
2024/04/12 00:33:19;;;;;;;1999.90;999.90;;;;;;;;;;5446444;26;20000;-80
2024/04/12 00:35:49;;;;;;;1999.90;999.90;;;;;;;;;;5444941;26;20015;-80
2024/04/12 00:38:17;;;;;;;1999.90;999.90;;;;;;;;;;5442774;26;20011;-80
2024/04/12 00:40:45;;;;;;;1999.90;999.90;;;;;;;;;;5445531;26;20104;-81
2024/04/12 00:43:18;;;;;;;1999.90;999.90;;;;;;;;;;5445716;26;20049;-81
2024/04/12 00:45:48;;;;;;;1999.90;999.90;;;;;;;;;;5442094;26;20344;-81
2024/04/12 00:48:20;;;;;;;1999.90;999.90;;;;;;;;;;5435324;26;20019;-80
2024/04/12 00:50:46;;;;;;;1999.90;999.90;;;;;;;;;;5443286;26;20048;-81
2024/04/12 00:53:22;;;;;;;1999.90;999.90;;;;;;;;;;5444446;26;19999;-80
2024/04/12 00:55:59;;;;;;;1999.90;999.90;;;;;;;;;;5435289;26;19998;-80
2024/04/12 00:58:32;;;;;;;1999.90;999.90;;;;;;;;;;5441652;26;20005;-80
2024/04/12 01:01:10;;;;;;;1999.90;999.90;;;;;;;;;;5438773;26;20060;-80
2024/04/12 01:03:45;;;;;;;1999.90;999.90;;;;;;;;;;5440877;26;20004;-81
2024/04/12 01:06:15;;;;;;;1999.90;999.90;;;;;;;;;;5446746;26;19998;-79
2024/04/12 01:08:43;;;;;;;1999.90;999.90;;;;;;;;;;5443629;26;20018;-80
2024/04/12 01:11:09;;;;;;;1999.90;999.90;;;;;;;;;;5448504;26;20014;-80
2024/04/12 01:13:38;;;;;;;1999.90;999.90;;;;;;;;;;5449056;26;20435;-81
2024/04/12 01:16:07;;;;;;;1999.90;999.90;;;;;;;;;;5447466;26;19999;-80
2024/04/12 01:18:36;;;;;;;1999.90;999.90;;;;;;;;;;5445331;26;20599;-80
2024/04/12 01:21:10;;;;;;;1999.90;999.90;;;;;;;;;;5448036;26;20030;-80
2024/04/12 01:23:40;;;;;;;1999.90;999.90;;;;;;;;;;5446995;26;20003;-80
2024/04/12 01:26:09;;;;;;;1999.90;999.90;;;;;;;;;;5436963;26;19998;-80
2024/04/12 01:28:38;;;;;;;1999.90;999.90;;;;;;;;;;5443341;26;20010;-80
2024/04/12 01:31:05;;;;;;;1999.90;999.90;;;;;;;;;;5466460;26;20475;-80
2024/04/12 01:33:33;;;;;;;1999.90;999.90;;;;;;;;;;5484378;26;20081;-81
2024/04/12 01:36:04;;;;;;;1999.90;999.90;;;;;;;;;;5478681;26;20076;-80
2024/04/12 01:38:36;;;;;;;1999.90;999.90;;;;;;;;;;5476070;26;20009;-80
2024/04/12 01:41:05;;;;;;;1999.90;999.90;;;;;;;;;;5484751;26;20010;-80
2024/04/12 01:43:38;;;;;;;1999.90;999.90;;;;;;;;;;5482832;26;20008;-81
2024/04/12 01:46:04;;;;;;;1999.90;999.90;;;;;;;;;;5480319;26;20021;-81
2024/04/12 01:48:33;;;;;;;1999.90;999.90;;;;;;;;;;5485309;26;20017;-80
2024/04/12 01:51:02;;;;;;;1999.90;999.90;;;;;;;;;;5483261;26;20014;-81
2024/04/12 01:53:36;;;;;;;1999.90;999.90;;;;;;;;;;5485547;26;20070;-81
2024/04/12 01:56:04;;;;;;;1999.90;999.90;;;;;;;;;;5481138;26;19998;-80
2024/04/12 01:58:34;;;;;;;1999.90;999.90;;;;;;;;;;5476123;26;20010;-80
2024/04/12 02:01:02;;;;;;;1999.90;999.90;;;;;;;;;;5482198;26;20013;-81
2024/04/12 02:03:31;;;;;;;1999.90;999.90;;;;;;;;;;5484100;26;20002;-81
2024/04/12 02:05:56;;;;;;;1999.90;999.90;;;;;;;;;;5485202;26;20053;-81
2024/04/12 02:08:24;;;;;;;1999.90;999.90;;;;;;;;;;5482093;26;20006;-82
2024/04/12 02:10:53;;;;;;;1999.90;999.90;;;;;;;;;;5483566;26;20034;-80
2024/04/12 02:13:22;;;;;;;1999.90;999.90;;;;;;;;;;5483407;26;20037;-81
2024/04/12 02:15:51;;;;;;;1999.90;999.90;;;;;;;;;;5477737;26;20095;-81
2024/04/12 02:18:23;;;;;;;1999.90;999.90;;;;;;;;;;5480113;26;20002;-81
2024/04/12 02:20:51;;;;;;;1999.90;999.90;;;;;;;;;;5483288;26;20047;-81
2024/04/12 02:23:20;;;;;;;1999.90;999.90;;;;;;;;;;5479111;26;20002;-80
2024/04/12 02:25:48;;;;;;;1999.90;999.90;;;;;;;;;;5480227;26;20014;-80
2024/04/12 02:28:18;;;;;;;1999.90;999.90;;;;;;;;;;5483012;26;20074;-80
2024/04/12 02:30:45;;;;;;;1999.90;999.90;;;;;;;;;;5479730;26;20854;-80
2024/04/12 02:33:14;;;;;;;1999.90;999.90;;;;;;;;;;5479614;26;20006;-80
2024/04/12 02:35:43;;;;;;;1999.90;999.90;;;;;;;;;;5476847;26;20002;-80
2024/04/12 02:38:15;;;;;;;1999.90;999.90;;;;;;;;;;5479888;26;20036;-79
2024/04/12 02:40:41;;;;;;;1999.90;999.90;;;;;;;;;;5482529;26;20590;-80
2024/04/12 02:43:15;;;;;;;1999.90;999.90;;;;;;;;;;5481762;26;20002;-82
2024/04/12 02:45:47;;;;;;;1999.90;999.90;;;;;;;;;;5484941;26;20006;-81
2024/04/12 02:48:16;;;;;;;1999.90;999.90;;;;;;;;;;5482089;26;19998;-81
2024/04/12 02:50:44;;;;;;;1999.90;999.90;;;;;;;;;;5482303;26;20121;-81
2024/04/12 02:53:18;;;;;;;1999.90;999.90;;;;;;;;;;5476709;26;20812;-82
2024/04/12 02:55:43;;;;;;;1999.90;999.90;;;;;;;;;;5480914;26;20009;-81
2024/04/12 02:58:12;;;;;;;1999.90;999.90;;;;;;;;;;5482872;26;20378;-81
2024/04/12 03:00:39;;;;;;;1999.90;999.90;;;;;;;;;;5484627;26;20039;-81
2024/04/12 03:03:08;;;;;;;1999.90;999.90;;;;;;;;;;5479576;26;20002;-81
2024/04/12 03:05:33;;;;;;;1999.90;999.90;;;;;;;;;;5482152;26;20017;-81
2024/04/12 03:08:05;;;;;;;1999.90;999.90;;;;;;;;;;5484133;26;20480;-81
2024/04/12 03:10:32;;;;;;;1999.90;999.90;;;;;;;;;;5477440;26;20007;-81
2024/04/12 03:13:01;;;;;;;1999.90;999.90;;;;;;;;;;5482990;26;20460;-81
2024/04/12 03:15:27;;;;;;;1999.90;999.90;;;;;;;;;;5479491;26;19998;-81
2024/04/12 03:17:55;;;;;;;1999.90;999.90;;;;;;;;;;5481437;26;20014;-82
2024/04/12 03:20:21;;;;;;;1999.90;999.90;;;;;;;;;;5482243;26;20010;-82
2024/04/12 03:22:49;;;;;;;1999.90;999.90;;;;;;;;;;5481177;26;20003;-81
2024/04/12 03:25:17;;;;;;;1999.90;999.90;;;;;;;;;;5479704;26;19994;-81
2024/04/12 03:27:46;;;;;;;1999.90;999.90;;;;;;;;;;5481922;26;20017;-82
2024/04/12 03:30:14;;;;;;;1999.90;999.90;;;;;;;;;;5483883;26;20010;-82
2024/04/12 03:32:47;;;;;;;1999.90;999.90;;;;;;;;;;5484304;26;20861;-80
2024/04/12 03:35:14;;;;;;;1999.90;999.90;;;;;;;;;;5481239;26;20540;-80
2024/04/12 03:37:49;;;;;;;1999.90;999.90;;;;;;;;;;5481147;26;20002;-80
2024/04/12 03:40:18;;;;;;;1999.90;999.90;;;;;;;;;;5481486;26;20013;-80
2024/04/12 03:42:47;;;;;;;1999.90;999.90;;;;;;;;;;5475964;26;20017;-80
2024/04/12 03:45:12;;;;;;;1999.90;999.90;;;;;;;;;;5476951;26;20009;-80
2024/04/12 03:47:44;;;;;;;1999.90;999.90;;;;;;;;;;5484192;26;19998;-80
2024/04/12 03:50:13;;;;;;;1999.90;999.90;;;;;;;;;;5474442;26;20006;-80
2024/04/12 03:52:43;;;;;;;1999.90;999.90;;;;;;;;;;5478194;26;19998;-80
2024/04/12 03:55:09;;;;;;;1999.90;999.90;;;;;;;;;;5482558;26;20002;-80
2024/04/12 03:57:44;;;;;;;1999.90;999.90;;;;;;;;;;5481284;26;20038;-80
2024/04/12 04:00:13;;;;;;;1999.90;999.90;;;;;;;;;;5479576;26;20074;-80
2024/04/12 04:02:48;;;;;;;1999.90;999.90;;;;;;;;;;5474665;26;20002;-80
2024/04/12 04:05:14;;;;;;;1999.90;999.90;;;;;;;;;;5480348;26;20009;-80
2024/04/12 04:07:44;;;;;;;1999.90;999.90;;;;;;;;;;5483162;26;20002;-80
2024/04/12 04:10:13;;;;;;;1999.90;999.90;;;;;;;;;;5482046;26;19998;-80
2024/04/12 04:12:49;;;;;;;1999.90;999.90;;;;;;;;;;5481894;26;19998;-80
2024/04/12 04:15:15;;;;;;;1999.90;999.90;;;;;;;;;;5478514;26;20010;-80
2024/04/12 04:17:47;;;;;;;1999.90;999.90;;;;;;;;;;5482192;26;20495;-80
2024/04/12 04:20:13;;;;;;;1999.90;999.90;;;;;;;;;;5482737;26;19998;-80
2024/04/12 04:22:49;;;;;;;1999.90;999.90;;;;;;;;;;5480916;26;20022;-80
2024/04/12 04:25:18;;;;;;;1999.90;999.90;;;;;;;;;;5478231;26;20017;-80
2024/04/12 04:27:50;;;;;;;1999.90;999.90;;;;;;;;;;5480366;26;20356;-80
2024/04/12 04:30:18;;;;;;;1999.90;999.90;;;;;;;;;;5483524;26;20536;-80
2024/04/12 04:32:46;;;;;;;1999.90;999.90;;;;;;;;;;5480300;26;20055;-80
2024/04/12 04:35:13;;;;;;;1999.90;999.90;;;;;;;;;;5483069;26;20010;-80
2024/04/12 04:37:41;;;;;;;1999.90;999.90;;;;;;;;;;5482006;26;20002;-80
2024/04/12 04:40:16;;;;;;;1999.90;999.90;;;;;;;;;;5480062;26;20005;-80
2024/04/12 04:42:45;;;;;;;1999.90;999.90;;;;;;;;;;5482437;26;20017;-80
2024/04/12 04:45:17;;;;;;;1999.90;999.90;;;;;;;;;;5480428;26;20460;-80
2024/04/12 04:47:46;;;;;;;1999.90;999.90;;;;;;;;;;5477877;26;20012;-80
2024/04/12 04:50:13;;;;;;;1999.90;999.90;;;;;;;;;;5481142;26;20027;-80
2024/04/12 04:52:41;;;;;;;1999.90;999.90;;;;;;;;;;5478408;26;20037;-80
2024/04/12 04:55:07;;;;;;;1999.90;999.90;;;;;;;;;;5482334;26;20100;-79
2024/04/12 04:57:39;;;;;;;1999.90;999.90;;;;;;;;;;5481176;26;20021;-80
2024/04/12 05:00:08;;;;;;;1999.90;999.90;;;;;;;;;;5478683;26;20002;-80
2024/04/12 05:02:39;;;;;;;1999.90;999.90;;;;;;;;;;5482828;26;20014;-80
2024/04/12 05:05:05;;;;;;;1999.90;999.90;;;;;;;;;;5478420;26;20471;-80
2024/04/12 05:07:35;;;;;;;1999.90;999.90;;;;;;;;;;5478366;26;20014;-80
2024/04/12 05:10:08;;;;;;;1999.90;999.90;;;;;;;;;;5479944;26;20495;-80
2024/04/12 05:12:38;;;;;;;1999.90;999.90;;;;;;;;;;5481500;26;20696;-80
2024/04/12 05:15:10;;;;;;;1999.90;999.90;;;;;;;;;;5477462;26;20096;-80
2024/04/12 05:17:41;;;;;;;1999.90;999.90;;;;;;;;;;5480056;26;19998;-79
2024/04/12 05:20:14;;;;;;;1999.90;999.90;;;;;;;;;;5478609;26;20002;-79
2024/04/12 05:22:44;;;;;;;1999.90;999.90;;;;;;;;;;5478304;26;19998;-79
2024/04/12 05:25:13;;;;;;;1999.90;999.90;;;;;;;;;;5481278;26;20002;-79
2024/04/12 05:27:42;;;;;;;1999.90;999.90;;;;;;;;;;5481176;26;20380;-79
2024/04/12 05:30:08;;;;;;;1999.90;999.90;;;;;;;;;;5478382;26;20009;-79
2024/04/12 05:32:42;;;;;;;1999.90;999.90;;;;;;;;;;5481958;26;20002;-79
2024/04/12 05:35:15;;;;;;;1999.90;999.90;;;;;;;;;;5481314;26;20013;-80
2024/04/12 05:37:43;;;;;;;1999.90;999.90;;;;;;;;;;5477251;26;20002;-79
2024/04/12 05:40:13;;;;;;;1999.90;999.90;;;;;;;;;;5481743;26;20021;-79
2024/04/12 05:42:44;;;;;;;1999.90;999.90;;;;;;;;;;5478907;26;20071;-79
2024/04/12 05:45:09;;;;;;;1999.90;999.90;;;;;;;;;;5481539;26;20034;-79
2024/04/12 05:47:38;;;;;;;1999.90;999.90;;;;;;;;;;5479864;26;20047;-79
2024/04/12 05:50:05;;;;;;;1999.90;999.90;;;;;;;;;;5481004;26;20074;-79
2024/04/12 05:52:36;;;;;;;1999.90;999.90;;;;;;;;;;5485451;26;19998;-80
2024/04/12 05:55:10;;;;;;;1999.90;999.90;;;;;;;;;;5485958;26;20002;-80
2024/04/12 05:57:38;;;;;;;1999.90;999.90;;;;;;;;;;5485394;26;20010;-80
2024/04/12 06:00:09;;;;;;;1999.90;999.90;;;;;;;;;;5485155;26;20009;-80
2024/04/12 06:02:39;;;;;;;1999.90;999.90;;;;;;;;;;5485978;26;19998;-80
2024/04/12 06:05:05;;;;;;;1999.90;999.90;;;;;;;;;;5485177;26;20013;-80
2024/04/12 06:07:37;;;;;;;1999.90;999.90;;;;;;;;;;5480409;26;20356;-80
2024/04/12 06:10:04;;;;;;;1999.90;999.90;;;;;;;;;;5485291;26;20002;-80
2024/04/12 06:12:36;;;;;;;1999.90;999.90;;;;;;;;;;5485419;26;19998;-79
2024/04/12 06:15:04;;;;;;;1999.90;999.90;;;;;;;;;;5485596;26;20002;-79
2024/04/12 06:17:32;;;;;;;1999.90;999.90;;;;;;;;;;5484964;26;20794;-79
2024/04/12 06:19:59;;;;;;;1999.90;999.90;;;;;;;;;;5485194;26;20045;-79
2024/04/12 06:22:31;;;;;;;1999.90;999.90;;;;;;;;;;5484508;26;20741;-79
2024/04/12 06:25:01;;;;;;;1999.90;999.90;;;;;;;;;;5484325;26;19998;-79
2024/04/12 06:27:33;;;;;;;1999.90;999.90;;;;;;;;;;5478028;26;20726;-80
2024/04/12 06:29:59;;;;;;;1999.90;999.90;;;;;;;;;;5483737;26;20009;-80
2024/04/12 06:32:28;;;;;;;1999.90;999.90;;;;;;;;;;5485167;26;20075;-79
2024/04/12 06:34:53;;;;;;;1999.90;999.90;;;;;;;;;;5484847;26;20002;-79
2024/04/12 06:37:22;;;;;;;1999.90;999.90;;;;;;;;;;5485433;26;19998;-79
2024/04/12 06:39:48;;;;;;;1999.90;999.90;;;;;;;;;;5484814;26;20006;-79
2024/04/12 06:42:20;;;;;;;1999.90;999.90;;;;;;;;;;5484542;26;20352;-79
2024/04/12 06:44:48;;;;;;;1999.90;999.90;;;;;;;;;;5481592;26;20002;-79
2024/04/12 06:47:18;;;;;;;1999.90;999.90;;;;;;;;;;5484683;26;20044;-80
2024/04/12 06:49:44;;;;;;;1999.90;999.90;;;;;;;;;;5485060;26;19998;-79
2024/04/12 06:52:14;;;;;;;1999.90;999.90;;;;;;;;;;5484614;26;20016;-79
2024/04/12 06:54:42;;;;;;;1999.90;999.90;;;;;;;;;;5481654;26;19998;-79
2024/04/12 06:57:17;;;;;;;1999.90;999.90;;;;;;;;;;5484550;26;19998;-79
2024/04/12 06:59:47;;;;;;;1999.90;999.90;;;;;;;;;;5485144;26;20070;-80
2024/04/12 07:02:23;;;;;;;1999.90;999.90;;;;;;;;;;5482846;26;19998;-79
2024/04/12 07:04:49;;;;;;;;;;;;;;;;;;5484111;26;20006;-79
2024/04/12 07:07:22;;;;;;;1999.90;999.90;;;;;;;;;;5484914;26;19931;-79
2024/04/12 07:09:49;;;;;;;1999.90;999.90;;;;;;;;;;5483290;26;20330;-80
2024/04/12 07:12:19;;;;;;;1999.90;999.90;;;;;;;;;;5485425;26;20002;-80
2024/04/12 07:14:48;;;;;;;1999.90;999.90;;;;;;;;;;5483316;26;20105;-79
2024/04/12 07:17:26;;;;;;;1999.90;999.90;;;;;;;;;;5483111;26;20485;-78
2024/04/12 07:19:53;;;;;;;1999.90;999.90;;;;;;;;;;5483346;26;20006;-80
2024/04/12 07:22:21;;;;;;;1999.90;999.90;;;;;;;;;;5485242;26;20055;-79
2024/04/12 07:24:50;;;;;;;1999.90;999.90;;;;;;;;;;5485103;26;19998;-80
2024/04/12 07:27:22;;;;;;;1999.90;999.90;;;;;;;;;;5483735;26;20027;-80
2024/04/12 07:29:51;;;;;;;1999.90;999.90;;;;;;;;;;5483310;26;19998;-80
2024/04/12 07:32:22;;;;;;;1999.90;999.90;;;;;;;;;;5446473;26;20476;-81
2024/04/12 07:34:48;;;;;;;1999.90;999.90;;;;;;;;;;5446566;26;20011;-81
2024/04/12 07:37:26;;;;;;;1999.90;999.90;;;;;;;;;;5445683;26;19999;-81
2024/04/12 07:40:15;;;;;;;1999.90;999.90;;;;;;;;;;5445191;26;20578;-81
2024/04/12 07:42:45;;;;;;;;;;;;;;;;;;5443798;26;20461;-79
2024/04/12 07:45:16;;;;;;;1999.90;999.90;;;;;;;;;;5445824;26;19949;-80
2024/04/12 07:47:52;;;;;;;1999.90;999.90;;;;;;;;;;5446686;26;19999;-79
2024/04/12 07:50:21;;;;;;;1999.90;999.90;;;;;;;;;;5444317;26;20442;-82
2024/04/12 07:52:50;;;;;;;1999.90;999.90;;;;;;;;;;5446925;26;20002;-78
2024/04/12 07:55:23;;;;;;;1999.90;999.90;;;;;;;;;;5443960;26;20021;-81
2024/04/12 07:57:52;;;;;;;1999.90;999.90;;;;;;;;;;5447513;26;20337;-79
2024/04/12 08:00:35;;;;;;;1999.90;999.90;;;;;;;;;;5447956;26;20006;-83
2024/04/12 08:03:06;;;;;;;1999.90;999.90;;;;;;;;;;5445587;26;20539;-80
2024/04/12 08:05:42;;;;;;;1999.90;999.90;;;;;;;;;;5446907;26;20006;-82
2024/04/12 08:08:15;;;;;;;1999.90;999.90;;;;;;;;;;5448222;26;20011;-82
2024/04/12 08:10:41;;;;;;;1999.90;999.90;;;;;;;;;;5447679;26;20003;-82
2024/04/12 08:13:23;;;;;;;1999.90;999.90;;;;;;;;;;5447069;26;20016;-79
2024/04/12 08:15:52;;;;;;;1999.90;999.90;;;;;;;;;;5448353;26;19999;-80
2024/04/12 08:18:20;;;;;;;1999.90;999.90;;;;;;;;;;5445574;26;20018;-80
2024/04/12 08:20:46;;;;;;;1999.90;999.90;;;;;;;;;;5445466;26;20456;-80
2024/04/12 08:23:17;;;;;;;1999.90;999.90;;;;;;;;;;5447970;26;20002;-80
2024/04/12 08:25:48;;;;;;;1999.90;999.90;;;;;;;;;;5446245;26;20003;-77
2024/04/12 08:28:16;;;;;;;1999.90;999.90;;;;;;;;;;5447769;26;19999;-78
2024/04/12 08:30:51;;;;;;;1999.90;999.90;;;;;;;;;;5447974;26;19999;-78
2024/04/12 08:33:24;;;;;;;1999.90;999.90;;;;;;;;;;5448215;26;19999;-78
2024/04/12 08:35:55;;;;;;;1999.90;999.90;;;;;;;;;;5447465;26;20017;-78
2024/04/12 08:38:24;;;;;;;1999.90;999.90;;;;;;;;;;5446592;26;20428;-78
2024/04/12 08:40:52;;;;;;;1999.90;999.90;;;;;;;;;;5447569;26;20017;-78
2024/04/12 08:43:41;;;;;;;1999.90;999.90;;;;;;;;;;5479199;26;20539;-79
2024/04/12 08:46:16;;;;;;;1999.90;999.90;;;;;;;;;;5483676;26;20012;-78
2024/04/12 08:48:47;;;;;;;1999.90;999.90;;;;;;;;;;5483945;26;20013;-78
2024/04/12 08:51:21;;;;;;;1999.90;999.90;;;;;;;;;;5483362;26;20006;-78
2024/04/12 08:53:55;;;;;;;1999.90;999.90;;;;;;;;;;5481963;26;20074;-78
2024/04/12 08:56:23;;;;;;;1999.90;999.90;;;;;;;;;;5483939;26;20046;-78
2024/04/12 08:58:52;;;;;;;1999.90;999.90;;;;;;;;;;5483697;26;20079;-78
2024/04/12 09:01:21;;;;;;;1999.90;999.90;;;;;;;;;;5482262;26;20009;-82
2024/04/12 09:03:55;;;;;;;1999.90;999.90;;;;;;;;;;5483731;26;20005;-79
2024/04/12 09:06:23;;;;;;;1999.90;999.90;;;;;;;;;;5482866;26;20006;-78
2024/04/12 09:08:53;;;;;;;1999.90;999.90;;;;;;;;;;5482371;26;20009;-79
2024/04/12 09:11:20;;;;;;;1999.90;999.90;;;;;;;;;;5481750;26;20494;-75
2024/04/12 09:13:48;;;;;;;1999.90;999.90;;;;;;;;;;5485046;26;20501;-82
2024/04/12 09:16:19;;;;;;;1999.90;999.90;;;;;;;;;;5484235;26;20113;-83
2024/04/12 09:18:50;;;;;;;1999.90;999.90;;;;;;;;;;5482197;26;20045;-84
2024/04/12 09:21:24;;;;;;;1999.90;999.90;;;;;;;;;;5483939;26;19995;-83
2024/04/12 09:23:56;;;;;;;1999.90;999.90;;;;;;;;;;5483348;26;20013;-83
2024/04/12 09:26:22;;;;;;;1999.90;999.90;;;;;;;;;;5482329;26;19994;-83
2024/04/12 09:28:51;;;;;;;1999.90;999.90;;;;;;;;;;5487783;26;20074;-81
2024/04/12 09:36:56;;;;;;;1999.90;999.90;;;;;;;;;;5484087;26;20017;-83
2024/04/12 09:39:23;;;;;;;1999.90;999.90;;;;;;;;;;5484644;26;20009;-84
2024/04/12 09:41:56;;;;;;;1999.90;999.90;;;;;;;;;;5483805;26;20006;-82
2024/04/12 09:44:27;;;;;;;1999.90;999.90;;;;;;;;;;5485945;26;20025;-83
2024/04/12 10:39:44;;;;;;;1999.90;999.90;;;;;;;;;;5487017;26;20483;-86
2024/04/12 10:42:19;;;;;;;1999.90;999.90;;;;;;;;;;5481596;26;19999;-83
2024/04/12 10:44:49;;;;;;;1999.90;999.90;;;;;;;;;;5481110;26;20010;-82
2024/04/12 10:47:20;;;;;;;1999.90;999.90;;;;;;;;;;5478043;26;20487;-90
2024/04/12 10:49:50;;;;;;;1999.90;999.90;;;;;;;;;;5481286;26;20018;-86
2024/04/12 10:52:28;;;;;;;1999.90;999.90;;;;;;;;;;5485228;26;20013;-84
2024/04/12 10:54:54;;;;;;;1999.90;999.90;;;;;;;;;;5481260;26;19998;-78
2024/04/12 10:57:27;;;;;;;1999.90;999.90;;;;;;;;;;5482695;26;20100;-77
2024/04/12 10:59:54;;;;;;;1999.90;999.90;;;;;;;;;;5484087;26;20017;-77
2024/04/12 11:02:22;;;;;;;1999.90;999.90;;;;;;;;;;5480857;26;20126;-80
2024/04/12 11:05:24;;;;;;;1999.90;999.90;;;;;;;;;;5476553;26;20057;-78
2024/04/12 11:07:53;;;;;;;1999.90;999.90;;;;;;;;;;5482672;26;20003;-80
2024/04/12 11:10:24;;;;;;;1999.90;999.90;;;;;;;;;;5481113;26;20038;-80
2024/04/12 11:12:59;;;;;;;1999.90;999.90;;;;;;;;;;5481206;26;19998;-80
2024/04/12 11:32:05;;;;;;;1999.90;999.90;;;;;;;;;;5481904;26;20059;-78
2024/04/12 11:34:38;;;;;;;1999.90;999.90;;;;;;;;;;5482314;26;19998;-79
2024/04/12 11:37:08;;;;;;;1999.90;999.90;;;;;;;;;;5476459;26;20014;-79
2024/04/12 11:39:35;;;;;;;1999.90;999.90;;;;;;;;;;5481556;26;20038;-79
2024/04/12 11:42:04;;;;;;;1999.90;999.90;;;;;;;;;;5477206;26;20003;-79
2024/04/12 11:44:34;;;;;;;1999.90;999.90;;;;;;;;;;5479296;26;19998;-79
2024/04/12 11:47:03;;;;;;;1999.90;999.90;;;;;;;;;;5479165;26;20074;-80
2024/04/12 11:49:41;;;;;;;1999.90;999.90;;;;;;;;;;5481931;26;20010;-81
2024/04/12 11:52:15;;;;;;;1999.90;999.90;;;;;;;;;;5479206;26;20010;-80
2024/04/12 11:54:42;;;;;;;1999.90;999.90;;;;;;;;;;5483299;26;20862;-80
2024/04/12 11:57:12;;;;;;;1999.90;999.90;;;;;;;;;;5478098;26;20045;-80
2024/04/12 11:59:43;;;;;;;1999.90;999.90;;;;;;;;;;5482135;26;20002;-81
2024/04/12 12:02:14;;;;;;;1999.90;999.90;;;;;;;;;;5477157;26;20001;-80
2024/04/12 12:04:40;;;;;;;1999.90;999.90;;;;;;;;;;5484645;26;20034;-79
2024/04/12 12:07:10;;;;;;;1999.90;999.90;;;;;;;;;;5484239;26;20464;-79
2024/04/12 12:09:36;;;;;;;1999.90;999.90;;;;;;;;;;5477960;26;20009;-79
2024/04/12 12:12:10;;;;;;;1999.90;999.90;;;;;;;;;;5481969;26;20002;-78
2024/04/12 12:14:36;;;;;;;1999.90;999.90;;;;;;;;;;5482371;26;20013;-79
2024/04/12 12:17:09;;;;;;;1999.90;999.90;;;;;;;;;;5479893;26;20002;-78
2024/04/12 12:19:34;;;;;;;1999.90;999.90;;;;;;;;;;5480692;26;20047;-78
2024/04/12 12:22:02;;;;;;;1999.90;999.90;;;;;;;;;;5484451;26;20010;-79
2024/04/12 12:24:29;;;;;;;1999.90;999.90;;;;;;;;;;5483753;26;20038;-78
2024/04/12 12:26:58;;;;;;;1999.90;999.90;;;;;;;;;;5480841;26;20299;-79
2024/04/12 12:29:25;;;;;;;1999.90;999.90;;;;;;;;;;5480300;26;20021;-79
2024/04/12 12:31:55;;;;;;;1999.90;999.90;;;;;;;;;;5477502;26;20017;-78
2024/04/12 12:34:23;;;;;;;1999.90;999.90;;;;;;;;;;5483450;26;20432;-78
2024/04/12 12:36:51;;;;;;;1999.90;999.90;;;;;;;;;;5479128;26;20017;-78
2024/04/12 12:39:19;;;;;;;1999.90;999.90;;;;;;;;;;5483740;26;20013;-79
2024/04/12 12:41:48;;;;;;;1999.90;999.90;;;;;;;;;;5475599;26;20017;-79
2024/04/12 12:44:18;;;;;;;1999.90;999.90;;;;;;;;;;5482550;26;20006;-79
2024/04/12 12:46:48;;;;;;;1999.90;999.90;;;;;;;;;;5484233;26;19998;-79
2024/04/12 12:49:13;;;;;;;1999.90;999.90;;;;;;;;;;5481798;26;19999;-78
2024/04/12 12:51:47;;;;;;;1999.90;999.90;;;;;;;;;;5481278;26;20013;-78
2024/04/12 12:54:13;;;;;;;1999.90;999.90;;;;;;;;;;5483294;26;20002;-80
2024/04/12 12:56:42;;;;;;;1999.90;999.90;;;;;;;;;;5482328;26;20002;-80
2024/04/12 12:59:07;;;;;;;1999.90;999.90;;;;;;;;;;5479768;26;20002;-80
2024/04/12 13:01:41;;;;;;;1999.90;999.90;;;;;;;;;;5484611;26;20048;-80
2024/04/12 13:04:08;;;;;;;1999.90;999.90;;;;;;;;;;5481024;26;20928;-81
2024/04/12 13:06:36;;;;;;;1999.90;999.90;;;;;;;;;;5486288;26;21235;-81
2024/04/12 13:09:06;;;;;;;1999.90;999.90;;;;;;;;;;5482496;26;20016;-82
2024/04/12 13:11:34;;;;;;;1999.90;999.90;;;;;;;;;;5482261;26;20039;-81
2024/04/12 13:14:01;;;;;;;1999.90;999.90;;;;;;;;;;5481497;26;20135;-79
2024/04/12 13:16:29;;;;;;;1999.90;999.90;;;;;;;;;;5480574;26;20019;-79
2024/04/12 13:18:56;;;;;;;1999.90;999.90;;;;;;;;;;5484903;26;20021;-78
2024/04/12 13:21:25;;;;;;;1999.90;999.90;;;;;;;;;;5482275;26;20009;-79
2024/04/12 13:23:53;;;;;;;1999.90;999.90;;;;;;;;;;5483412;26;20544;-78
2024/04/12 13:26:31;;;;;;;1999.90;999.90;;;;;;;;;;5481927;26;20002;-77
2024/04/12 13:28:57;;;;;;;1999.90;999.90;;;;;;;;;;5480904;26;20082;-78
2024/04/12 13:31:29;;;;;;;1999.90;999.90;;;;;;;;;;5485655;26;20014;-78
2024/04/12 13:33:55;;;;;;;1999.90;999.90;;;;;;;;;;5480302;26;20042;-78
2024/04/12 13:36:24;;;;;;;1999.90;999.90;;;;;;;;;;5486530;26;20002;-78
2024/04/12 13:38:50;;;;;;;1999.90;999.90;;;;;;;;;;5481515;26;20037;-78
2024/04/12 13:41:20;;;;;;;1999.90;999.90;;;;;;;;;;5485128;26;20464;-78
2024/04/12 13:43:49;;;;;;;1999.90;999.90;;;;;;;;;;5481302;26;20017;-79
2024/04/12 13:51:49;;;;;;;1999.90;999.90;;;;;;;;;;5487300;26;20017;-79
2024/04/12 13:54:20;;;;;;;1999.90;999.90;;;;;;;;;;5482653;26;20013;-78
2024/04/12 13:56:49;;;;;;;1999.90;999.90;;;;;;;;;;5483088;26;20006;-78
2024/04/12 13:59:18;;;;;;;1999.90;999.90;;;;;;;;;;5483767;26;20002;-78
2024/04/12 14:01:46;;;;;;;1999.90;999.90;;;;;;;;;;5484318;26;20092;-78
2024/04/12 14:04:18;;;;;;;1999.90;999.90;;;;;;;;;;5485710;26;20435;-78
2024/04/12 14:06:47;;;;;;;1999.90;999.90;;;;;;;;;;5485003;26;20023;-78
2024/04/12 14:09:13;;;;;;;1999.90;999.90;;;;;;;;;;5481367;26;19998;-79
2024/04/12 14:11:42;;;;;;;1999.90;999.90;;;;;;;;;;5482867;26;20003;-78
2024/04/12 14:14:08;;;;;;;1999.90;999.90;;;;;;;;;;5485252;26;20002;-78
2024/04/12 14:16:43;;;;;;;1999.90;999.90;;;;;;;;;;5483683;26;20006;-77
2024/04/12 14:19:17;;;;;;;1999.90;999.90;;;;;;;;;;5483674;26;20082;-78
2024/04/12 14:21:46;;;;;;;1999.90;999.90;;;;;;;;;;5481236;26;20008;-77
2024/04/12 14:24:56;;;;;;;1999.90;999.90;;;;;;;;;;5485442;26;20010;-78
2024/04/12 14:27:00;;;;;;;1999.90;999.90;;;;;;;;;;5482948;26;19998;-78
2024/04/12 14:29:26;;;;;;;1999.90;999.90;;;;;;;;;;5478489;26;20099;-78
2024/04/12 14:32:05;;;;;;;1999.90;999.90;;;;;;;;;;5482588;26;20009;-78
2024/04/12 14:34:32;;;;;;;1999.90;999.90;;;;;;;;;;5486188;26;19995;-78
2024/04/12 14:37:00;;;;;;;1999.90;999.90;;;;;;;;;;5480082;26;20826;-79
2024/04/12 14:39:28;;;;;;;1999.90;999.90;;;;;;;;;;5484920;26;20002;-79
2024/04/12 14:41:57;;;;;;;1999.90;999.90;;;;;;;;;;5479351;26;19998;-78
2024/04/12 14:44:22;;;;;;;1999.90;999.90;;;;;;;;;;5490301;26;19998;-79
2024/04/12 14:46:50;;;;;;;1999.90;999.90;;;;;;;;;;5486306;26;20536;-79
2024/04/12 14:49:19;;;;;;;1999.90;999.90;;;;;;;;;;5484403;26;20336;-80
2024/04/12 14:51:48;;;;;;;1999.90;999.90;;;;;;;;;;5489258;26;20442;-78
2024/04/12 14:54:14;;;;;;;1999.90;999.90;;;;;;;;;;5482283;26;20010;-79
2024/04/12 14:56:42;;;;;;;1999.90;999.90;;;;;;;;;;5482548;26;20445;-80
2024/04/12 14:59:11;;;;;;;1999.90;999.90;;;;;;;;;;5482918;26;20030;-80
2024/04/12 15:01:39;;;;;;;1999.90;999.90;;;;;;;;;;5485773;26;20090;-80
2024/04/12 15:48:10;;;;;;;1999.90;999.90;;;;;;;;;;5483368;26;20013;-81
2024/04/12 15:50:39;;;;;;;1999.90;999.90;;;;;;;;;;5479871;26;19998;-81
2024/04/12 15:53:23;;;;;;;1999.90;999.90;;;;;;;;;;5481053;26;20014;-80
2024/04/12 16:12:29;;;;;;;1999.90;999.90;;;;;;;;;;5481656;26;20070;-81
2024/04/12 16:14:55;;;;;;;1999.90;999.90;;;;;;;;;;5483569;26;20009;-81
2024/04/12 16:17:23;;;;;;;1999.90;999.90;;;;;;;;;;5478917;26;20006;-80